createdAt,value
2019-04-25T00:00:43.255Z,2.50
2019-04-25T00:01:43.914Z,2.60
2019-04-25T00:02:43.991Z,2.50
2019-04-25T00:03:43.718Z,2.70
2019-04-25T00:04:43.490Z,2.60
2019-04-25T00:05:43.589Z,2.50
2019-04-25T00:06:43.998Z,2.50
2019-04-25T00:07:43.862Z,2.50
2019-04-25T00:08:44.131Z,2.50
2019-04-25T00:09:44.033Z,2.40
2019-04-25T00:10:43.879Z,2.40
2019-04-25T00:11:46.552Z,2.80
2019-04-25T00:12:43.715Z,2.90
2019-04-25T00:13:44.001Z,2.80
2019-04-25T00:14:43.764Z,2.80
2019-04-25T00:15:44.927Z,2.90
2019-04-25T00:16:44.049Z,3.10
2019-04-25T00:17:43.397Z,2.80
2019-04-25T00:18:43.130Z,2.90
2019-04-25T00:19:43.324Z,2.60
2019-04-25T00:20:43.596Z,2.70
2019-04-25T00:21:43.363Z,2.40
2019-04-25T00:22:43.725Z,2.40
2019-04-25T00:23:43.705Z,2.50
2019-04-25T00:24:43.975Z,2.50
2019-04-25T00:25:45.850Z,2.40
2019-04-25T00:26:44.098Z,2.50
2019-04-25T00:27:43.578Z,2.20
2019-04-25T00:28:44.351Z,2.40
2019-04-25T00:29:43.933Z,2.20
2019-04-25T00:30:44.425Z,2.40
2019-04-25T00:31:43.693Z,2.20
2019-04-25T00:32:44.103Z,2.20
2019-04-25T00:33:44.173Z,2.10
2019-04-25T00:34:44.253Z,2.20
2019-04-25T00:35:44.562Z,2.10
2019-04-25T00:36:43.704Z,2.20
2019-04-25T00:37:44.254Z,2.20
2019-04-25T00:38:46.420Z,2.20
2019-04-25T00:39:44.776Z,2.20
2019-04-25T00:40:43.906Z,2.30
2019-04-25T00:41:45.157Z,2.30
2019-04-25T00:42:43.689Z,2.00
2019-04-25T00:43:43.884Z,2.20
2019-04-25T00:44:44.746Z,2.40
2019-04-25T00:45:44.450Z,2.50
2019-04-25T00:46:46.383Z,2.80
2019-04-25T00:47:44.651Z,2.20
2019-04-25T00:48:43.446Z,2.10
2019-04-25T00:49:44.025Z,2.10
2019-04-25T00:50:43.645Z,2.30
2019-04-25T00:51:43.759Z,2.10
2019-04-25T00:52:43.890Z,2.10
2019-04-25T00:53:43.450Z,2.00
2019-04-25T00:54:43.158Z,2.30
2019-04-25T00:55:43.164Z,2.20
2019-04-25T00:56:45.651Z,2.20
2019-04-25T00:57:43.531Z,2.20
2019-04-25T00:58:43.961Z,2.20
2019-04-25T00:59:43.917Z,2.30
2019-04-25T01:00:43.445Z,2.10
2019-04-25T01:01:44.249Z,2.00
2019-04-25T01:02:44.070Z,2.50
2019-04-25T01:03:44.154Z,2.30
2019-04-25T01:04:43.733Z,2.60
2019-04-25T01:05:44.410Z,2.30
2019-04-25T01:06:43.937Z,2.20
2019-04-25T01:07:44.247Z,2.50
2019-04-25T01:08:43.355Z,2.70
2019-04-25T01:09:42.517Z,2.40
2019-04-25T01:10:42.509Z,2.50
2019-04-25T01:11:42.526Z,2.60
2019-04-25T01:12:42.494Z,2.50
2019-04-25T01:13:42.480Z,2.80
2019-04-25T01:14:42.459Z,2.90
2019-04-25T01:15:42.579Z,3.50
2019-04-25T01:16:42.431Z,2.80
2019-04-25T01:17:42.445Z,2.90
2019-04-25T01:18:43.626Z,2.90
2019-04-25T01:19:44.047Z,3.00
2019-04-25T01:20:43.451Z,2.70
2019-04-25T01:21:43.910Z,2.90
2019-04-25T01:22:43.993Z,3.10
2019-04-25T01:23:43.481Z,3.00
2019-04-25T01:24:43.869Z,2.60
2019-04-25T01:25:44.328Z,2.60
2019-04-25T01:26:43.775Z,2.80
2019-04-25T01:27:43.333Z,2.60
2019-04-25T01:28:43.853Z,2.60
2019-04-25T01:29:42.297Z,2.70
2019-04-25T01:30:43.880Z,2.40
2019-04-25T01:31:43.448Z,2.40
2019-04-25T01:32:44.632Z,2.20
2019-04-25T01:33:43.341Z,2.60
2019-04-25T01:34:44.167Z,2.40
2019-04-25T01:35:43.064Z,2.10
2019-04-25T01:36:42.221Z,2.10
2019-04-25T01:37:43.722Z,2.30
2019-04-25T01:38:43.315Z,2.60
2019-04-25T01:39:42.191Z,2.30
2019-04-25T01:40:43.908Z,2.50
2019-04-25T01:41:42.180Z,2.40
2019-04-25T01:42:43.739Z,2.20
2019-04-25T01:43:43.659Z,2.10
2019-04-25T01:44:43.683Z,2.30
2019-04-25T01:45:43.763Z,2.50
2019-04-25T01:46:42.182Z,2.40
2019-04-25T01:47:43.402Z,2.10
2019-04-25T01:48:43.363Z,2.30
2019-04-25T01:49:43.808Z,2.30
2019-04-25T01:50:43.773Z,2.40
2019-04-25T01:51:43.597Z,2.50
2019-04-25T01:52:43.430Z,2.40
2019-04-25T01:53:42.073Z,2.40
2019-04-25T01:54:43.662Z,2.40
2019-04-25T01:55:53.764Z,2.30
2019-04-25T01:56:44.311Z,2.00
2019-04-25T01:57:43.729Z,2.10
2019-04-25T01:58:43.638Z,2.00
2019-04-25T01:59:43.721Z,2.10
2019-04-25T02:00:43.113Z,2.10
2019-04-25T02:01:41.958Z,2.60
2019-04-25T02:02:43.437Z,2.10
2019-04-25T02:03:41.939Z,2.20
2019-04-25T02:04:41.964Z,2.10
2019-04-25T02:05:41.918Z,2.20
2019-04-25T02:06:43.055Z,2.30
2019-04-25T02:07:41.909Z,2.20
2019-04-25T02:08:41.889Z,2.20
2019-04-25T02:09:43.460Z,1.70
2019-04-25T02:10:41.866Z,1.70
2019-04-25T02:11:41.856Z,1.70
2019-04-25T02:12:43.404Z,1.60
2019-04-25T02:13:43.681Z,1.80
2019-04-25T02:14:43.475Z,1.70
2019-04-25T02:15:43.327Z,1.90
2019-04-25T02:16:41.824Z,2.00
2019-04-25T02:17:41.815Z,2.00
2019-04-25T02:18:43.462Z,2.00
2019-04-25T02:19:41.774Z,1.80
2019-04-25T02:20:43.534Z,1.90
2019-04-25T02:21:43.309Z,1.60
2019-04-25T02:22:41.742Z,1.70
2019-04-25T02:23:41.730Z,1.80
2019-04-25T02:24:41.737Z,1.80
2019-04-25T02:25:41.723Z,1.70
2019-04-25T02:26:41.714Z,1.50
2019-04-25T02:27:41.686Z,2.00
2019-04-25T02:28:41.675Z,2.10
2019-04-25T02:29:43.226Z,1.80
2019-04-25T02:30:41.665Z,2.00
2019-04-25T02:31:41.673Z,1.80
2019-04-25T02:32:43.746Z,1.50
2019-04-25T02:33:44.100Z,1.90
2019-04-25T02:34:41.617Z,1.80
2019-04-25T02:35:44.009Z,1.90
2019-04-25T02:36:41.609Z,1.60
2019-04-25T02:37:41.582Z,1.90
2019-04-25T02:38:44.007Z,1.80
2019-04-25T02:39:41.556Z,1.60
2019-04-25T02:40:41.548Z,1.80
2019-04-25T02:41:41.562Z,1.70
2019-04-25T02:42:43.729Z,1.80
2019-04-25T02:43:41.527Z,1.90
2019-04-25T02:44:41.507Z,1.90
2019-04-25T02:45:41.497Z,1.80
2019-04-25T02:46:41.488Z,1.90
2019-04-25T02:47:41.499Z,1.70
2019-04-25T02:48:41.467Z,1.70
2019-04-25T02:49:41.468Z,1.80
2019-04-25T02:50:41.470Z,1.80
2019-04-25T02:51:41.442Z,1.50
2019-04-25T02:52:41.452Z,1.90
2019-04-25T02:53:41.415Z,1.70
2019-04-25T02:54:41.400Z,2.00
2019-04-25T02:55:41.396Z,1.80
2019-04-25T02:56:41.387Z,1.90
2019-04-25T02:57:41.385Z,2.00
2019-04-25T02:58:41.372Z,1.70
2019-04-25T02:59:41.349Z,1.60
2019-04-25T03:00:54.979Z,1.70
2019-04-25T03:01:44.458Z,1.70
2019-04-25T03:02:41.336Z,1.60
2019-04-25T03:03:41.310Z,1.80
2019-04-25T03:04:41.293Z,1.90
2019-04-25T03:05:41.312Z,1.90
2019-04-25T03:06:41.286Z,1.70
2019-04-25T03:07:41.282Z,1.80
2019-04-25T03:08:41.270Z,1.50
2019-04-25T03:09:41.239Z,1.60
2019-04-25T03:10:41.246Z,1.70
2019-04-25T03:11:41.222Z,1.80
2019-04-25T03:12:41.208Z,1.60
2019-04-25T03:13:41.240Z,1.80
2019-04-25T03:14:41.188Z,1.70
2019-04-25T03:15:41.184Z,1.70
2019-04-25T03:16:41.174Z,1.70
2019-04-25T03:17:41.159Z,1.80
2019-04-25T03:18:41.145Z,1.90
2019-04-25T03:19:41.160Z,2.00
2019-04-25T03:20:41.138Z,1.80
2019-04-25T03:21:41.118Z,1.90
2019-04-25T03:22:41.105Z,1.80
2019-04-25T03:23:42.782Z,1.70
2019-04-25T03:24:41.151Z,1.80
2019-04-25T03:25:41.076Z,1.70
2019-04-25T03:26:41.075Z,1.90
2019-04-25T03:27:41.052Z,1.80
2019-04-25T03:28:41.038Z,1.80
2019-04-25T03:29:41.033Z,1.80
2019-04-25T03:30:41.050Z,1.70
2019-04-25T03:31:41.020Z,1.60
2019-04-25T03:32:41.000Z,2.00
2019-04-25T03:33:40.987Z,1.70
2019-04-25T03:34:41.001Z,1.90
2019-04-25T03:35:40.984Z,1.60
2019-04-25T03:36:40.955Z,1.80
2019-04-25T03:37:40.953Z,1.60
2019-04-25T03:38:40.935Z,1.60
2019-04-25T03:39:40.922Z,1.70
2019-04-25T03:40:40.985Z,1.90
2019-04-25T03:41:40.901Z,1.80
2019-04-25T03:42:40.921Z,1.90
2019-04-25T03:43:40.880Z,1.90
2019-04-25T03:44:40.869Z,1.70
2019-04-25T03:45:40.870Z,1.90
2019-04-25T03:46:40.870Z,1.90
2019-04-25T03:47:40.840Z,2.00
2019-04-25T03:48:40.843Z,1.80
2019-04-25T03:49:40.822Z,2.00
2019-04-25T03:50:40.806Z,1.70
2019-04-25T03:51:40.815Z,1.70
2019-04-25T03:52:40.829Z,2.20
2019-04-25T03:53:40.778Z,1.90
2019-04-25T03:54:40.763Z,1.80
2019-04-25T03:55:40.750Z,1.90
2019-04-25T03:56:49.834Z,2.00
2019-04-25T03:57:41.730Z,2.10
2019-04-25T03:58:40.733Z,1.90
2019-04-25T03:59:40.709Z,1.90
2019-04-25T04:00:40.700Z,1.90
2019-04-25T04:01:40.707Z,2.00
2019-04-25T04:02:40.691Z,2.30
2019-04-25T04:03:40.666Z,1.90
2019-04-25T04:04:40.655Z,2.20
2019-04-25T04:05:40.647Z,1.60
2019-04-25T04:06:40.675Z,2.20
2019-04-25T04:07:40.630Z,1.70
2019-04-25T04:08:40.612Z,1.90
2019-04-25T04:09:40.603Z,1.90
2019-04-25T04:10:40.592Z,1.70
2019-04-25T04:11:40.588Z,1.90
2019-04-25T04:12:40.591Z,2.30
2019-04-25T04:13:40.560Z,2.10
2019-04-25T04:14:40.549Z,1.90
2019-04-25T04:15:40.560Z,2.00
2019-04-25T04:16:40.535Z,2.00
2019-04-25T04:17:40.540Z,2.00
2019-04-25T04:18:40.506Z,2.00
2019-04-25T04:19:40.497Z,1.90
2019-04-25T04:20:40.491Z,1.70
2019-04-25T04:21:40.473Z,1.70
2019-04-25T04:22:40.464Z,1.80
2019-04-25T04:23:40.473Z,2.10
2019-04-25T04:24:40.443Z,1.70
2019-04-25T04:25:40.440Z,2.00
2019-04-25T04:26:40.423Z,1.70
2019-04-25T04:27:40.411Z,1.90
2019-04-25T04:28:40.419Z,2.00
2019-04-25T04:29:40.405Z,2.10
2019-04-25T04:30:40.380Z,1.80
2019-04-25T04:31:40.375Z,1.70
2019-04-25T04:32:40.357Z,1.90
2019-04-25T04:33:40.372Z,2.00
2019-04-25T04:34:40.345Z,1.90
2019-04-25T04:35:40.326Z,2.00
2019-04-25T04:36:40.320Z,1.90
2019-04-25T04:37:40.304Z,1.60
2019-04-25T04:38:40.314Z,1.70
2019-04-25T04:39:40.303Z,1.70
2019-04-25T04:40:40.272Z,1.60
2019-04-25T04:41:40.263Z,2.00
2019-04-25T04:42:40.252Z,1.80
2019-04-25T04:43:40.252Z,1.80
2019-04-25T04:44:40.250Z,1.70
2019-04-25T04:45:40.219Z,1.60
2019-04-25T04:46:40.210Z,1.70
2019-04-25T04:47:40.199Z,1.70
2019-04-25T04:48:40.195Z,1.70
2019-04-25T04:49:40.198Z,2.00
2019-04-25T04:50:40.167Z,1.60
2019-04-25T04:51:40.155Z,2.00
2019-04-25T04:52:40.146Z,1.90
2019-04-25T04:53:40.135Z,1.80
2019-04-25T04:54:40.149Z,1.90
2019-04-25T04:55:40.114Z,1.90
2019-04-25T04:56:40.103Z,2.10
2019-04-25T04:57:40.103Z,2.30
2019-04-25T04:58:40.098Z,1.90
2019-04-25T04:59:40.093Z,2.00
2019-04-25T05:00:40.093Z,1.70
2019-04-25T05:01:40.074Z,2.10
2019-04-25T05:02:40.039Z,2.10
2019-04-25T05:03:40.031Z,2.40
2019-04-25T05:04:40.019Z,2.10
2019-04-25T05:05:40.030Z,1.80
2019-04-25T05:06:40.001Z,2.00
2019-04-25T05:07:39.987Z,1.60
2019-04-25T05:08:39.978Z,1.70
2019-04-25T05:09:39.973Z,1.60
2019-04-25T05:10:40.201Z,1.80
2019-04-25T05:11:40.035Z,1.70
2019-04-25T05:12:39.948Z,1.80
2019-04-25T05:13:39.934Z,1.60
2019-04-25T05:14:39.938Z,2.10
2019-04-25T05:15:39.906Z,1.80
2019-04-25T05:16:39.912Z,1.80
2019-04-25T05:17:39.920Z,1.40
2019-04-25T05:18:40.117Z,1.60
2019-04-25T05:19:39.864Z,1.80
2019-04-25T05:20:39.852Z,2.00
2019-04-25T05:21:39.901Z,1.60
2019-04-25T05:22:39.831Z,1.70
2019-04-25T05:23:39.818Z,1.80
2019-04-25T05:24:39.814Z,1.70
2019-04-25T05:25:39.797Z,2.10
2019-04-25T05:26:39.784Z,1.70
2019-04-25T05:27:56.910Z,1.80
2019-04-25T05:28:40.764Z,1.60
2019-04-25T05:29:39.763Z,1.70
2019-04-25T05:30:39.744Z,1.90
2019-04-25T05:31:39.739Z,2.00
2019-04-25T05:32:39.803Z,1.80
2019-04-25T05:33:39.713Z,1.90
2019-04-25T05:34:39.746Z,1.70
2019-04-25T05:35:39.692Z,1.70
2019-04-25T05:36:39.703Z,2.00
2019-04-25T05:37:39.676Z,1.80
2019-04-25T05:38:39.681Z,1.70
2019-04-25T05:39:39.656Z,1.60
2019-04-25T05:40:39.641Z,2.00
2019-04-25T05:41:39.629Z,1.80
2019-04-25T05:42:39.627Z,1.60
2019-04-25T05:43:39.629Z,1.80
2019-04-25T05:44:39.613Z,1.90
2019-04-25T05:45:39.587Z,1.70
2019-04-25T05:46:39.590Z,1.80
2019-04-25T05:47:39.566Z,1.90
2019-04-25T05:48:39.605Z,1.60
2019-04-25T05:49:39.544Z,1.60
2019-04-25T05:50:39.572Z,1.50
2019-04-25T05:51:39.525Z,1.70
2019-04-25T05:52:39.511Z,2.30
2019-04-25T05:53:39.502Z,1.80
2019-04-25T05:54:39.520Z,1.80
2019-04-25T05:55:39.479Z,1.90
2019-04-25T05:56:39.476Z,2.10
2019-04-25T05:57:47.410Z,1.90
2019-04-25T05:58:40.447Z,1.90
2019-04-25T05:59:39.435Z,2.10
2019-04-25T06:00:39.447Z,1.90
2019-04-25T06:01:39.435Z,2.00
2019-04-25T06:02:39.412Z,2.00
2019-04-25T06:03:39.400Z,1.60
2019-04-25T06:04:39.389Z,1.50
2019-04-25T06:05:39.395Z,1.80
2019-04-25T06:06:39.365Z,1.80
2019-04-25T06:07:39.354Z,1.60
2019-04-25T06:08:39.344Z,1.70
2019-04-25T06:09:39.348Z,1.50
2019-04-25T06:10:39.354Z,1.60
2019-04-25T06:11:39.313Z,1.60
2019-04-25T06:12:39.301Z,1.90
2019-04-25T06:13:39.314Z,1.80
2019-04-25T06:14:39.295Z,1.60
2019-04-25T06:15:39.290Z,1.60
2019-04-25T06:16:39.259Z,1.60
2019-04-25T06:17:39.250Z,1.50
2019-04-25T06:18:39.241Z,1.60
2019-04-25T06:19:39.234Z,1.70
2019-04-25T06:20:39.235Z,1.70
2019-04-25T06:21:39.206Z,1.60
2019-04-25T06:22:39.213Z,1.60
2019-04-25T06:23:39.185Z,1.60
2019-04-25T06:24:39.175Z,1.70
2019-04-25T06:25:39.856Z,1.80
2019-04-25T06:26:40.024Z,1.60
2019-04-25T06:27:39.143Z,1.60
2019-04-25T06:28:49.165Z,1.50
2019-04-25T06:29:40.128Z,1.80
2019-04-25T06:30:39.113Z,1.50
2019-04-25T06:31:39.121Z,1.60
2019-04-25T06:32:39.090Z,1.70
2019-04-25T06:33:39.111Z,1.50
2019-04-25T06:34:39.068Z,1.60
2019-04-25T06:35:39.057Z,1.60
2019-04-25T06:36:39.066Z,1.60
2019-04-25T06:37:39.035Z,1.60
2019-04-25T06:38:39.027Z,1.30
2019-04-25T06:39:39.023Z,1.50
2019-04-25T06:40:39.005Z,1.70
2019-04-25T06:41:39.042Z,1.50
2019-04-25T06:42:39.012Z,1.60
2019-04-25T06:43:38.974Z,1.40
2019-04-25T06:44:38.961Z,1.60
2019-04-25T06:45:38.956Z,1.50
2019-04-25T06:46:38.951Z,1.60
2019-04-25T06:47:38.950Z,1.30
2019-04-25T06:48:38.924Z,1.50
2019-04-25T06:49:38.925Z,1.40
2019-04-25T06:50:38.898Z,1.50
2019-04-25T06:51:38.891Z,1.50
2019-04-25T06:52:38.899Z,1.30
2019-04-25T06:53:38.869Z,1.40
2019-04-25T06:54:38.858Z,1.20
2019-04-25T06:55:38.887Z,1.40
2019-04-25T06:56:38.836Z,1.50
2019-04-25T06:57:38.849Z,1.50
2019-04-25T06:58:38.816Z,1.60
2019-04-25T06:59:41.440Z,1.30
2019-04-25T07:00:42.571Z,1.40
2019-04-25T07:01:39.785Z,1.80
2019-04-25T07:02:38.807Z,1.50
2019-04-25T07:03:38.771Z,1.50
2019-04-25T07:04:38.751Z,1.30
2019-04-25T07:05:40.509Z,1.30
2019-04-25T07:06:38.734Z,1.40
2019-04-25T07:07:38.741Z,1.40
2019-04-25T07:08:38.729Z,1.50
2019-04-25T07:09:38.797Z,1.30
2019-04-25T07:10:38.689Z,1.30
2019-04-25T07:11:38.679Z,1.40
2019-04-25T07:12:38.695Z,1.30
2019-04-25T07:13:38.971Z,1.50
2019-04-25T07:14:38.646Z,1.40
2019-04-25T07:15:38.634Z,1.50
2019-04-25T07:16:38.624Z,1.50
2019-04-25T07:17:38.622Z,1.30
2019-04-25T07:18:38.626Z,1.40
2019-04-25T07:19:38.673Z,1.50
2019-04-25T07:20:38.644Z,1.50
2019-04-25T07:21:38.570Z,1.30
2019-04-25T07:22:38.562Z,1.50
2019-04-25T07:23:38.571Z,1.20
2019-04-25T07:24:38.540Z,1.30
2019-04-25T07:25:38.529Z,1.10
2019-04-25T07:26:39.787Z,1.30
2019-04-25T07:27:38.572Z,1.20
2019-04-25T07:28:38.537Z,1.70
2019-04-25T07:29:38.490Z,1.50
2019-04-25T07:30:50.115Z,1.50
2019-04-25T07:31:39.472Z,1.30
2019-04-25T07:32:38.892Z,1.40
2019-04-25T07:33:38.444Z,1.70
2019-04-25T07:34:38.465Z,1.30
2019-04-25T07:35:38.424Z,1.40
2019-04-25T07:36:38.415Z,1.30
2019-04-25T07:37:41.518Z,1.10
2019-04-25T07:38:38.395Z,1.20
2019-04-25T07:39:38.411Z,1.60
2019-04-25T07:40:38.377Z,1.20
2019-04-25T07:41:38.578Z,1.40
2019-04-25T07:42:38.350Z,1.20
2019-04-25T07:43:38.338Z,1.50
2019-04-25T07:44:49.399Z,1.50
2019-04-25T07:45:39.347Z,1.40
2019-04-25T07:46:39.950Z,1.70
2019-04-25T07:47:38.337Z,1.40
2019-04-25T07:48:38.289Z,1.60
2019-04-25T07:49:38.276Z,1.70
2019-04-25T07:50:38.283Z,1.40
2019-04-25T07:51:38.254Z,1.20
2019-04-25T07:52:38.249Z,1.30
2019-04-25T07:53:38.235Z,1.60
2019-04-25T07:54:38.503Z,1.50
2019-04-25T07:55:38.826Z,1.20
2019-04-25T07:56:38.203Z,1.20
2019-04-25T07:57:38.650Z,1.30
2019-04-25T07:58:49.316Z,1.30
2019-04-25T07:59:39.169Z,1.20
2019-04-25T08:00:38.182Z,1.20
2019-04-25T08:01:39.069Z,1.40
2019-04-25T08:02:38.137Z,1.50
2019-04-25T08:03:38.128Z,1.40
2019-04-25T08:04:38.372Z,1.40
2019-04-25T08:05:38.104Z,1.30
2019-04-25T08:06:38.114Z,1.10
2019-04-25T08:07:38.086Z,1.30
2019-04-25T08:08:38.178Z,1.40
2019-04-25T08:09:38.086Z,1.30
2019-04-25T08:10:38.167Z,1.30
2019-04-25T08:11:38.326Z,1.30
2019-04-25T08:12:38.045Z,1.40
2019-04-25T08:13:38.035Z,1.30
2019-04-25T08:14:38.011Z,1.30
2019-04-25T08:15:38.364Z,1.40
2019-04-25T08:16:38.008Z,1.50
2019-04-25T08:17:38.845Z,1.40
2019-04-25T08:18:38.931Z,1.30
2019-04-25T08:19:37.960Z,1.30
2019-04-25T08:20:37.946Z,1.60
2019-04-25T08:21:38.403Z,1.30
2019-04-25T08:22:50.154Z,1.10
2019-04-25T08:23:38.966Z,1.20
2019-04-25T08:24:37.904Z,1.20
2019-04-25T08:25:40.285Z,1.30
2019-04-25T08:26:37.903Z,1.60
2019-04-25T08:27:38.847Z,1.10
2019-04-25T08:28:50.146Z,1.10
2019-04-25T08:29:39.738Z,1.40
2019-04-25T08:30:38.228Z,1.30
2019-04-25T08:31:37.860Z,1.20
2019-04-25T08:32:37.818Z,1.00
2019-04-25T08:33:37.808Z,1.20
2019-04-25T08:34:38.603Z,1.20
2019-04-25T08:35:38.193Z,1.30
2019-04-25T08:36:38.659Z,1.30
2019-04-25T08:37:37.950Z,1.30
2019-04-25T08:38:38.175Z,1.20
2019-04-25T08:39:38.748Z,1.30
2019-04-25T08:40:38.986Z,1.30
2019-04-25T08:41:38.493Z,1.40
2019-04-25T08:42:37.976Z,1.30
2019-04-25T08:43:40.088Z,1.50
2019-04-25T08:44:37.699Z,1.00
2019-04-25T08:45:38.481Z,1.10
2019-04-25T08:46:38.489Z,1.30
2019-04-25T08:47:37.679Z,1.30
2019-04-25T08:48:37.654Z,1.20
2019-04-25T08:49:38.150Z,1.20
2019-04-25T08:50:40.177Z,1.20
2019-04-25T08:51:37.857Z,1.20
2019-04-25T08:52:37.789Z,1.30
2019-04-25T08:53:37.615Z,1.20
2019-04-25T08:54:41.087Z,1.20
2019-04-25T08:55:38.571Z,1.40
2019-04-25T08:56:37.833Z,1.00
2019-04-25T08:57:37.951Z,1.10
2019-04-25T08:58:37.546Z,1.30
2019-04-25T08:59:43.330Z,1.20
2019-04-25T09:00:38.518Z,1.10
2019-04-25T09:01:39.555Z,1.40
2019-04-25T09:02:38.723Z,1.10
2019-04-25T09:03:38.005Z,1.10
2019-04-25T09:04:38.027Z,1.10
2019-04-25T09:05:38.723Z,1.40
2019-04-25T09:06:38.548Z,1.50
2019-04-25T09:07:38.227Z,1.30
2019-04-25T09:08:38.536Z,1.20
2019-04-25T09:09:37.858Z,1.40
2019-04-25T09:10:38.938Z,1.20
2019-04-25T09:11:38.745Z,1.20
2019-04-25T09:12:37.794Z,1.10
2019-04-25T09:13:38.446Z,1.20
2019-04-25T09:14:37.819Z,1.10
2019-04-25T09:15:38.084Z,1.20
2019-04-25T09:16:37.891Z,1.20
2019-04-25T09:17:38.038Z,1.20
2019-04-25T09:18:38.141Z,1.20
2019-04-25T09:19:38.375Z,1.10
2019-04-25T09:20:39.619Z,1.20
2019-04-25T09:21:37.843Z,1.60
2019-04-25T09:22:38.417Z,1.10
2019-04-25T09:23:37.925Z,1.50
2019-04-25T09:24:38.097Z,1.20
2019-04-25T09:25:37.255Z,1.00
2019-04-25T09:26:38.307Z,1.00
2019-04-25T09:27:39.717Z,1.10
2019-04-25T09:28:39.144Z,1.30
2019-04-25T09:29:37.236Z,1.10
2019-04-25T09:30:38.293Z,1.30
2019-04-25T09:31:38.792Z,1.20
2019-04-25T09:32:37.283Z,1.00
2019-04-25T09:33:37.205Z,1.40
2019-04-25T09:34:38.072Z,1.00
2019-04-25T09:35:37.657Z,1.20
2019-04-25T09:36:37.696Z,1.20
2019-04-25T09:37:37.122Z,1.40
2019-04-25T09:38:37.113Z,1.10
2019-04-25T09:39:37.140Z,1.10
2019-04-25T09:40:37.444Z,1.20
2019-04-25T09:41:37.867Z,1.10
2019-04-25T09:42:37.076Z,1.20
2019-04-25T09:43:37.306Z,1.10
2019-04-25T09:44:38.198Z,1.10
2019-04-25T09:45:37.620Z,1.00
2019-04-25T09:46:37.342Z,0.90
2019-04-25T09:47:37.183Z,1.30
2019-04-25T09:48:37.524Z,1.10
2019-04-25T09:49:37.980Z,0.90
2019-04-25T09:50:37.500Z,1.10
2019-04-25T09:51:37.621Z,1.00
2019-04-25T09:52:37.760Z,0.90
2019-04-25T09:53:42.353Z,1.10
2019-04-25T09:54:38.113Z,0.90
2019-04-25T09:55:37.555Z,0.90
2019-04-25T09:56:36.918Z,1.10
2019-04-25T09:57:36.906Z,0.90
2019-04-25T09:58:37.921Z,1.00
2019-04-25T09:59:37.543Z,1.00
2019-04-25T10:00:38.135Z,0.90
2019-04-25T10:01:37.886Z,1.00
2019-04-25T10:02:36.971Z,1.00
2019-04-25T10:03:36.844Z,1.00
2019-04-25T10:04:36.916Z,1.10
2019-04-25T10:05:37.132Z,0.90
2019-04-25T10:06:37.309Z,1.00
2019-04-25T10:07:37.283Z,1.10
2019-04-25T10:08:37.029Z,0.90
2019-04-25T10:09:36.779Z,1.00
2019-04-25T10:10:36.820Z,1.10
2019-04-25T10:11:38.216Z,1.00
2019-04-25T10:12:37.346Z,1.10
2019-04-25T10:13:38.502Z,1.00
2019-04-25T10:14:37.626Z,0.80
2019-04-25T10:15:37.537Z,1.00
2019-04-25T10:16:39.001Z,1.10
2019-04-25T10:17:37.570Z,1.10
2019-04-25T10:18:37.036Z,1.10
2019-04-25T10:19:36.940Z,1.10
2019-04-25T10:20:37.563Z,1.10
2019-04-25T10:21:37.960Z,1.00
2019-04-25T10:22:36.641Z,1.10
2019-04-25T10:23:38.135Z,1.30
2019-04-25T10:24:37.408Z,1.20
2019-04-25T10:25:38.000Z,1.10
2019-04-25T10:26:37.605Z,0.90
2019-04-25T10:27:36.596Z,1.00
2019-04-25T10:28:36.579Z,1.20
2019-04-25T10:29:44.429Z,1.10
2019-04-25T10:30:37.556Z,0.90
2019-04-25T10:31:36.568Z,1.10
2019-04-25T10:32:36.536Z,1.10
2019-04-25T10:33:36.529Z,1.30
2019-04-25T10:34:36.513Z,1.20
2019-04-25T10:35:46.661Z,1.00
2019-04-25T10:36:39.860Z,0.90
2019-04-25T10:37:36.482Z,1.40
2019-04-25T10:38:36.552Z,1.00
2019-04-25T10:39:36.462Z,1.10
2019-04-25T10:40:36.449Z,1.00
2019-04-25T10:41:36.440Z,1.40
2019-04-25T10:42:36.448Z,1.10
2019-04-25T10:43:36.419Z,1.20
2019-04-25T10:44:36.413Z,1.10
2019-04-25T10:45:36.409Z,1.40
2019-04-25T10:46:36.387Z,1.10
2019-04-25T10:47:36.393Z,1.30
2019-04-25T10:48:36.364Z,1.00
2019-04-25T10:49:36.354Z,0.90
2019-04-25T10:50:36.345Z,1.00
2019-04-25T10:51:36.333Z,1.10
2019-04-25T10:52:36.345Z,1.10
2019-04-25T10:53:36.314Z,1.00
2019-04-25T10:54:36.311Z,1.10
2019-04-25T10:55:36.291Z,1.20
2019-04-25T10:56:36.280Z,1.10
2019-04-25T10:57:36.316Z,1.00
2019-04-25T10:58:36.262Z,1.10
2019-04-25T10:59:36.252Z,1.00
2019-04-25T11:00:36.237Z,1.10
2019-04-25T11:01:36.229Z,1.20
2019-04-25T11:02:36.234Z,1.10
2019-04-25T11:03:36.254Z,1.10
2019-04-25T11:04:36.204Z,1.00
2019-04-25T11:05:36.183Z,1.10
2019-04-25T11:06:36.175Z,0.90
2019-04-25T11:07:36.187Z,1.10
2019-04-25T11:08:36.152Z,0.90
2019-04-25T11:09:36.145Z,1.10
2019-04-25T11:10:36.130Z,1.30
2019-04-25T11:11:36.120Z,1.00
2019-04-25T11:12:36.109Z,1.00
2019-04-25T11:13:36.120Z,1.00
2019-04-25T11:14:36.090Z,1.10
2019-04-25T11:15:36.076Z,1.00
2019-04-25T11:16:36.104Z,0.90
2019-04-25T11:17:36.055Z,0.90
2019-04-25T11:18:36.065Z,0.80
2019-04-25T11:19:37.329Z,1.10
2019-04-25T11:20:36.024Z,0.80
2019-04-25T11:21:36.013Z,1.00
2019-04-25T11:22:36.048Z,1.10
2019-04-25T11:23:36.016Z,0.90
2019-04-25T11:24:35.983Z,0.80
2019-04-25T11:25:35.976Z,1.00
2019-04-25T11:26:35.960Z,0.80
2019-04-25T11:27:35.951Z,0.60
2019-04-25T11:28:35.939Z,1.00
2019-04-25T11:29:35.958Z,0.80
2019-04-25T11:30:35.918Z,0.70
2019-04-25T11:31:35.908Z,0.90
2019-04-25T11:32:35.897Z,0.90
2019-04-25T11:33:35.887Z,0.90
2019-04-25T11:34:35.901Z,0.90
2019-04-25T11:35:35.865Z,0.90
2019-04-25T11:36:35.855Z,0.80
2019-04-25T11:37:35.844Z,0.80
2019-04-25T11:38:35.836Z,0.70
2019-04-25T11:39:35.841Z,0.80
2019-04-25T11:40:35.811Z,0.80
2019-04-25T11:41:35.800Z,0.80
2019-04-25T11:42:35.792Z,0.60
2019-04-25T11:43:35.788Z,0.60
2019-04-25T11:44:35.810Z,0.80
2019-04-25T11:45:35.758Z,0.60
2019-04-25T11:46:35.748Z,0.70
2019-04-25T11:47:35.743Z,0.60
2019-04-25T11:48:35.726Z,0.80
2019-04-25T11:49:35.714Z,0.60
2019-04-25T11:50:37.063Z,0.80
2019-04-25T11:51:35.694Z,0.60
2019-04-25T11:52:35.682Z,0.60
2019-04-25T11:53:35.678Z,0.60
2019-04-25T11:54:35.672Z,0.50
2019-04-25T11:55:35.674Z,0.80
2019-04-25T11:56:35.642Z,0.60
2019-04-25T11:57:35.638Z,0.60
2019-04-25T11:58:35.620Z,0.70
2019-04-25T11:59:35.613Z,0.90
2019-04-25T12:00:35.622Z,0.80
2019-04-25T12:01:35.590Z,0.80
2019-04-25T12:02:35.576Z,0.60
2019-04-25T12:03:35.566Z,0.70
2019-04-25T12:04:35.562Z,0.70
2019-04-25T12:05:35.563Z,0.70
2019-04-25T12:06:35.534Z,0.50
2019-04-25T12:07:35.525Z,0.40
2019-04-25T12:08:35.523Z,0.60
2019-04-25T12:09:35.502Z,0.70
2019-04-25T12:10:35.513Z,0.80
2019-04-25T12:11:35.485Z,0.60
2019-04-25T12:12:37.194Z,0.70
2019-04-25T12:13:35.458Z,0.50
2019-04-25T12:14:35.446Z,0.50
2019-04-25T12:15:35.437Z,0.50
2019-04-25T12:16:35.451Z,0.40
2019-04-25T12:17:35.428Z,0.40
2019-04-25T12:18:35.515Z,0.50
2019-04-25T12:19:37.926Z,0.50
2019-04-25T12:20:35.386Z,0.50
2019-04-25T12:21:35.404Z,0.70
2019-04-25T12:22:35.370Z,0.50
2019-04-25T12:23:35.356Z,0.50
2019-04-25T12:24:35.345Z,0.30
2019-04-25T12:25:35.333Z,0.40
2019-04-25T12:26:35.357Z,0.50
2019-04-25T12:27:35.312Z,0.30
2019-04-25T12:28:35.306Z,0.40
2019-04-25T12:29:35.294Z,0.30
2019-04-25T12:30:40.077Z,0.30
2019-04-25T12:31:36.312Z,0.40
2019-04-25T12:32:35.399Z,0.40
2019-04-25T12:33:35.249Z,0.40
2019-04-25T12:34:35.243Z,0.40
2019-04-25T12:35:35.230Z,0.50
2019-04-25T12:36:35.218Z,0.40
2019-04-25T12:37:35.777Z,0.50
2019-04-25T12:38:35.483Z,0.40
2019-04-25T12:39:35.202Z,0.40
2019-04-25T12:40:35.176Z,0.60
2019-04-25T12:41:35.166Z,0.60
2019-04-25T12:42:35.176Z,0.40
2019-04-25T12:43:35.146Z,0.40
2019-04-25T12:44:35.142Z,0.40
2019-04-25T12:45:35.126Z,0.40
2019-04-25T12:46:35.115Z,0.40
2019-04-25T12:47:35.145Z,0.40
2019-04-25T12:48:35.126Z,0.50
2019-04-25T12:49:35.083Z,0.30
2019-04-25T12:50:35.071Z,0.40
2019-04-25T12:51:35.062Z,0.40
2019-04-25T12:52:35.050Z,0.50
2019-04-25T12:53:35.231Z,0.40
2019-04-25T12:54:35.031Z,0.40
2019-04-25T12:55:35.024Z,0.40
2019-04-25T12:56:35.010Z,0.50
2019-04-25T12:57:35.007Z,0.50
2019-04-25T12:58:35.021Z,0.90
2019-04-25T12:59:34.977Z,0.50
2019-04-25T13:00:47.261Z,0.70
2019-04-25T13:01:35.956Z,0.50
2019-04-25T13:02:36.512Z,0.70
2019-04-25T13:03:34.936Z,0.50
2019-04-25T13:04:35.082Z,0.50
2019-04-25T13:05:34.916Z,0.50
2019-04-25T13:06:34.912Z,0.50
2019-04-25T13:07:34.893Z,0.40
2019-04-25T13:08:34.883Z,0.50
2019-04-25T13:09:34.873Z,0.50
2019-04-25T13:10:34.882Z,0.40
2019-04-25T13:11:34.941Z,0.40
2019-04-25T13:12:34.842Z,0.50
2019-04-25T13:13:34.831Z,0.30
2019-04-25T13:14:34.819Z,0.70
2019-04-25T13:15:34.862Z,0.40
2019-04-25T13:16:34.798Z,0.40
2019-04-25T13:17:34.790Z,0.40
2019-04-25T13:18:34.776Z,0.40